sensor_id;sensor_type;location;lat;lon;timestamp;P1;durP1;ratioP1;P2;durP2;ratioP2
52104;SDS011;38103;42.776;23.112;2024-02-26T00:01:14;31.05;;;15.50;;
52104;SDS011;38103;42.776;23.112;2024-02-26T00:03:39;28.70;;;14.27;;
52104;SDS011;38103;42.776;23.112;2024-02-26T00:06:07;24.30;;;13.30;;
52104;SDS011;38103;42.776;23.112;2024-02-26T00:08:32;25.00;;;12.45;;
52104;SDS011;38103;42.776;23.112;2024-02-26T00:10:57;19.50;;;12.10;;
52104;SDS011;38103;42.776;23.112;2024-02-26T00:13:23;21.23;;;12.00;;
52104;SDS011;38103;42.776;23.112;2024-02-26T00:15:48;28.17;;;13.93;;
52104;SDS011;38103;42.776;23.112;2024-02-26T00:18:13;28.45;;;14.35;;
52104;SDS011;38103;42.776;23.112;2024-02-26T00:20:39;23.75;;;13.13;;
52104;SDS011;38103;42.776;23.112;2024-02-26T00:23:06;29.48;;;15.38;;
52104;SDS011;38103;42.776;23.112;2024-02-26T00:25:32;26.00;;;14.10;;
52104;SDS011;38103;42.776;23.112;2024-02-26T00:27:57;32.75;;;15.57;;
52104;SDS011;38103;42.776;23.112;2024-02-26T00:30:22;32.08;;;16.40;;
52104;SDS011;38103;42.776;23.112;2024-02-26T00:32:48;36.42;;;18.30;;
52104;SDS011;38103;42.776;23.112;2024-02-26T00:35:13;35.90;;;19.27;;
52104;SDS011;38103;42.776;23.112;2024-02-26T00:37:40;44.95;;;24.60;;
52104;SDS011;38103;42.776;23.112;2024-02-26T00:40:08;36.72;;;19.00;;
52104;SDS011;38103;42.776;23.112;2024-02-26T00:42:34;30.23;;;15.52;;
52104;SDS011;38103;42.776;23.112;2024-02-26T00:44:59;31.58;;;14.68;;
52104;SDS011;38103;42.776;23.112;2024-02-26T00:47:24;29.05;;;14.63;;
52104;SDS011;38103;42.776;23.112;2024-02-26T00:49:49;31.17;;;15.15;;
52104;SDS011;38103;42.776;23.112;2024-02-26T00:52:15;33.22;;;16.10;;
52104;SDS011;38103;42.776;23.112;2024-02-26T00:54:40;30.50;;;14.75;;
52104;SDS011;38103;42.776;23.112;2024-02-26T00:57:06;32.28;;;15.05;;
52104;SDS011;38103;42.776;23.112;2024-02-26T00:59:31;33.42;;;13.98;;
52104;SDS011;38103;42.776;23.112;2024-02-26T01:01:56;30.63;;;13.02;;
52104;SDS011;38103;42.776;23.112;2024-02-26T01:04:23;20.48;;;11.45;;
52104;SDS011;38103;42.776;23.112;2024-02-26T01:06:49;21.48;;;11.15;;
52104;SDS011;38103;42.776;23.112;2024-02-26T01:09:14;20.40;;;10.57;;
52104;SDS011;38103;42.776;23.112;2024-02-26T01:11:39;20.90;;;12.05;;
52104;SDS011;38103;42.776;23.112;2024-02-26T01:14:05;20.80;;;10.95;;
52104;SDS011;38103;42.776;23.112;2024-02-26T01:16:31;22.75;;;12.07;;
52104;SDS011;38103;42.776;23.112;2024-02-26T01:18:56;22.17;;;11.18;;
52104;SDS011;38103;42.776;23.112;2024-02-26T01:21:22;19.92;;;10.32;;
52104;SDS011;38103;42.776;23.112;2024-02-26T01:23:47;22.20;;;11.45;;
52104;SDS011;38103;42.776;23.112;2024-02-26T01:26:13;19.63;;;10.68;;
52104;SDS011;38103;42.776;23.112;2024-02-26T01:28:38;15.52;;;9.60;;
52104;SDS011;38103;42.776;23.112;2024-02-26T01:31:03;19.42;;;10.30;;
52104;SDS011;38103;42.776;23.112;2024-02-26T01:33:31;18.58;;;11.02;;
52104;SDS011;38103;42.776;23.112;2024-02-26T01:35:57;20.67;;;10.45;;
52104;SDS011;38103;42.776;23.112;2024-02-26T01:38:22;19.40;;;9.30;;
52104;SDS011;38103;42.776;23.112;2024-02-26T01:40:47;19.55;;;10.40;;
52104;SDS011;38103;42.776;23.112;2024-02-26T01:43:13;18.58;;;11.27;;
52104;SDS011;38103;42.776;23.112;2024-02-26T01:45:38;20.70;;;10.77;;
52104;SDS011;38103;42.776;23.112;2024-02-26T01:48:04;19.77;;;9.18;;
52104;SDS011;38103;42.776;23.112;2024-02-26T01:50:29;16.85;;;9.48;;
52104;SDS011;38103;42.776;23.112;2024-02-26T01:52:55;18.95;;;11.15;;
52104;SDS011;38103;42.776;23.112;2024-02-26T01:55:22;15.63;;;9.10;;
52104;SDS011;38103;42.776;23.112;2024-02-26T01:57:49;17.20;;;9.90;;
52104;SDS011;38103;42.776;23.112;2024-02-26T02:00:17;20.58;;;11.77;;
52104;SDS011;38103;42.776;23.112;2024-02-26T02:02:43;32.80;;;15.15;;
52104;SDS011;38103;42.776;23.112;2024-02-26T02:05:11;36.00;;;17.17;;
52104;SDS011;38103;42.776;23.112;2024-02-26T02:10:04;28.83;;;16.42;;
52104;SDS011;38103;42.776;23.112;2024-02-26T02:12:30;18.55;;;11.85;;
52104;SDS011;38103;42.776;23.112;2024-02-26T02:14:58;19.45;;;9.85;;
52104;SDS011;38103;42.776;23.112;2024-02-26T02:17:23;26.83;;;10.40;;
52104;SDS011;38103;42.776;23.112;2024-02-26T02:19:49;20.80;;;9.95;;
52104;SDS011;38103;42.776;23.112;2024-02-26T02:22:14;28.92;;;13.63;;
52104;SDS011;38103;42.776;23.112;2024-02-26T02:24:40;23.02;;;11.43;;
52104;SDS011;38103;42.776;23.112;2024-02-26T02:27:05;20.63;;;11.75;;
52104;SDS011;38103;42.776;23.112;2024-02-26T02:29:31;21.17;;;11.00;;
52104;SDS011;38103;42.776;23.112;2024-02-26T02:31:56;20.58;;;11.75;;
52104;SDS011;38103;42.776;23.112;2024-02-26T02:34:22;20.33;;;10.10;;
52104;SDS011;38103;42.776;23.112;2024-02-26T02:36:51;21.23;;;10.70;;
52104;SDS011;38103;42.776;23.112;2024-02-26T02:39:17;19.20;;;11.30;;
52104;SDS011;38103;42.776;23.112;2024-02-26T02:41:43;22.88;;;11.30;;
52104;SDS011;38103;42.776;23.112;2024-02-26T02:44:08;20.83;;;10.20;;
52104;SDS011;38103;42.776;23.112;2024-02-26T02:46:34;16.92;;;10.23;;
52104;SDS011;38103;42.776;23.112;2024-02-26T02:49:00;20.60;;;11.45;;
52104;SDS011;38103;42.776;23.112;2024-02-26T02:51:26;18.85;;;11.60;;
52104;SDS011;38103;42.776;23.112;2024-02-26T02:53:51;21.92;;;12.02;;
52104;SDS011;38103;42.776;23.112;2024-02-26T02:56:16;27.75;;;12.70;;
52104;SDS011;38103;42.776;23.112;2024-02-26T02:58:42;20.02;;;12.45;;
52104;SDS011;38103;42.776;23.112;2024-02-26T03:01:07;31.33;;;14.80;;
52104;SDS011;38103;42.776;23.112;2024-02-26T03:03:32;51.65;;;23.90;;
52104;SDS011;38103;42.776;23.112;2024-02-26T03:05:58;28.20;;;13.95;;
52104;SDS011;38103;42.776;23.112;2024-02-26T03:08:23;36.35;;;15.68;;
52104;SDS011;38103;42.776;23.112;2024-02-26T03:10:50;32.20;;;15.75;;
52104;SDS011;38103;42.776;23.112;2024-02-26T03:13:16;30.73;;;16.25;;
52104;SDS011;38103;42.776;23.112;2024-02-26T03:15:41;33.80;;;17.95;;
52104;SDS011;38103;42.776;23.112;2024-02-26T03:18:07;30.67;;;16.95;;
52104;SDS011;38103;42.776;23.112;2024-02-26T03:20:32;31.30;;;17.38;;
52104;SDS011;38103;42.776;23.112;2024-02-26T03:22:58;28.55;;;14.55;;
52104;SDS011;38103;42.776;23.112;2024-02-26T03:25:24;30.23;;;16.10;;
52104;SDS011;38103;42.776;23.112;2024-02-26T03:27:49;35.78;;;17.92;;
52104;SDS011;38103;42.776;23.112;2024-02-26T03:30:15;32.63;;;16.52;;
52104;SDS011;38103;42.776;23.112;2024-02-26T03:32:40;31.00;;;16.30;;
52104;SDS011;38103;42.776;23.112;2024-02-26T03:35:06;36.10;;;16.42;;
52104;SDS011;38103;42.776;23.112;2024-02-26T03:37:32;29.85;;;15.07;;
52104;SDS011;38103;42.776;23.112;2024-02-26T03:39:58;36.25;;;16.80;;
52104;SDS011;38103;42.776;23.112;2024-02-26T03:42:23;34.00;;;17.02;;
52104;SDS011;38103;42.776;23.112;2024-02-26T03:44:49;32.65;;;17.08;;
52104;SDS011;38103;42.776;23.112;2024-02-26T03:47:14;35.63;;;17.17;;
52104;SDS011;38103;42.776;23.112;2024-02-26T03:49:41;32.72;;;17.33;;
52104;SDS011;38103;42.776;23.112;2024-02-26T03:52:06;38.88;;;21.00;;
52104;SDS011;38103;42.776;23.112;2024-02-26T03:54:32;35.15;;;18.73;;
52104;SDS011;38103;42.776;23.112;2024-02-26T03:56:57;39.10;;;20.35;;
52104;SDS011;38103;42.776;23.112;2024-02-26T03:59:22;32.88;;;18.20;;
52104;SDS011;38103;42.776;23.112;2024-02-26T04:01:49;38.58;;;18.48;;
52104;SDS011;38103;42.776;23.112;2024-02-26T04:04:15;33.45;;;17.00;;
52104;SDS011;38103;42.776;23.112;2024-02-26T04:06:44;33.72;;;17.33;;
52104;SDS011;38103;42.776;23.112;2024-02-26T04:09:10;32.65;;;17.23;;
52104;SDS011;38103;42.776;23.112;2024-02-26T04:11:36;33.80;;;17.95;;
52104;SDS011;38103;42.776;23.112;2024-02-26T04:14:01;30.60;;;16.30;;
52104;SDS011;38103;42.776;23.112;2024-02-26T04:16:28;33.08;;;17.23;;
52104;SDS011;38103;42.776;23.112;2024-02-26T04:18:53;28.75;;;16.40;;
52104;SDS011;38103;42.776;23.112;2024-02-26T04:21:19;32.85;;;17.27;;
52104;SDS011;38103;42.776;23.112;2024-02-26T04:23:45;37.35;;;17.15;;
52104;SDS011;38103;42.776;23.112;2024-02-26T04:26:10;31.08;;;17.20;;
52104;SDS011;38103;42.776;23.112;2024-02-26T04:28:35;34.85;;;18.17;;
52104;SDS011;38103;42.776;23.112;2024-02-26T04:31:01;33.83;;;15.93;;
52104;SDS011;38103;42.776;23.112;2024-02-26T04:33:26;35.30;;;18.60;;
52104;SDS011;38103;42.776;23.112;2024-02-26T04:35:52;33.83;;;16.85;;
52104;SDS011;38103;42.776;23.112;2024-02-26T04:38:18;38.28;;;19.10;;
52104;SDS011;38103;42.776;23.112;2024-02-26T04:40:43;36.75;;;18.38;;
52104;SDS011;38103;42.776;23.112;2024-02-26T04:43:08;37.22;;;17.65;;
52104;SDS011;38103;42.776;23.112;2024-02-26T04:45:34;34.63;;;17.08;;
52104;SDS011;38103;42.776;23.112;2024-02-26T04:47:59;32.35;;;17.23;;
52104;SDS011;38103;42.776;23.112;2024-02-26T04:50:25;36.92;;;18.77;;
52104;SDS011;38103;42.776;23.112;2024-02-26T04:52:50;32.75;;;18.33;;
52104;SDS011;38103;42.776;23.112;2024-02-26T04:55:15;30.27;;;17.10;;
52104;SDS011;38103;42.776;23.112;2024-02-26T04:57:41;34.83;;;18.40;;
52104;SDS011;38103;42.776;23.112;2024-02-26T05:00:08;36.65;;;17.63;;
52104;SDS011;38103;42.776;23.112;2024-02-26T05:02:34;35.20;;;18.15;;
52104;SDS011;38103;42.776;23.112;2024-02-26T05:05:03;45.47;;;25.05;;
52104;SDS011;38103;42.776;23.112;2024-02-26T05:07:33;48.70;;;23.20;;
52104;SDS011;38103;42.776;23.112;2024-02-26T05:09:59;44.40;;;20.98;;
52104;SDS011;38103;42.776;23.112;2024-02-26T05:12:24;42.00;;;19.30;;
52104;SDS011;38103;42.776;23.112;2024-02-26T05:14:50;43.03;;;20.02;;
52104;SDS011;38103;42.776;23.112;2024-02-26T05:17:15;40.67;;;19.38;;
52104;SDS011;38103;42.776;23.112;2024-02-26T05:19:40;40.50;;;18.90;;
52104;SDS011;38103;42.776;23.112;2024-02-26T05:22:06;47.35;;;22.83;;
52104;SDS011;38103;42.776;23.112;2024-02-26T05:24:31;43.08;;;21.02;;
52104;SDS011;38103;42.776;23.112;2024-02-26T05:26:56;43.80;;;20.52;;
52104;SDS011;38103;42.776;23.112;2024-02-26T05:29:22;38.85;;;18.25;;
52104;SDS011;38103;42.776;23.112;2024-02-26T05:31:47;35.70;;;18.40;;
52104;SDS011;38103;42.776;23.112;2024-02-26T05:34:12;37.08;;;18.25;;
52104;SDS011;38103;42.776;23.112;2024-02-26T05:36:38;32.00;;;15.68;;
52104;SDS011;38103;42.776;23.112;2024-02-26T05:39:04;32.30;;;16.17;;
52104;SDS011;38103;42.776;23.112;2024-02-26T05:41:29;35.85;;;17.35;;
52104;SDS011;38103;42.776;23.112;2024-02-26T05:43:55;34.40;;;15.50;;
52104;SDS011;38103;42.776;23.112;2024-02-26T05:46:20;26.15;;;13.00;;
52104;SDS011;38103;42.776;23.112;2024-02-26T05:48:47;27.33;;;13.35;;
52104;SDS011;38103;42.776;23.112;2024-02-26T05:51:13;25.60;;;13.23;;
52104;SDS011;38103;42.776;23.112;2024-02-26T05:53:38;30.48;;;13.85;;
52104;SDS011;38103;42.776;23.112;2024-02-26T05:56:05;26.13;;;13.23;;
52104;SDS011;38103;42.776;23.112;2024-02-26T05:58:31;23.67;;;13.07;;
52104;SDS011;38103;42.776;23.112;2024-02-26T06:00:56;24.25;;;12.32;;
52104;SDS011;38103;42.776;23.112;2024-02-26T06:03:22;24.13;;;12.05;;
52104;SDS011;38103;42.776;23.112;2024-02-26T06:05:47;22.10;;;13.05;;
52104;SDS011;38103;42.776;23.112;2024-02-26T06:08:12;21.95;;;13.07;;
52104;SDS011;38103;42.776;23.112;2024-02-26T06:10:38;22.85;;;11.77;;
52104;SDS011;38103;42.776;23.112;2024-02-26T06:13:04;18.90;;;11.52;;
52104;SDS011;38103;42.776;23.112;2024-02-26T06:15:30;23.27;;;11.95;;
52104;SDS011;38103;42.776;23.112;2024-02-26T06:17:55;18.48;;;10.73;;
52104;SDS011;38103;42.776;23.112;2024-02-26T06:20:20;17.75;;;11.57;;
52104;SDS011;38103;42.776;23.112;2024-02-26T06:22:46;19.13;;;10.60;;
52104;SDS011;38103;42.776;23.112;2024-02-26T06:25:11;19.35;;;11.82;;
52104;SDS011;38103;42.776;23.112;2024-02-26T06:27:37;17.67;;;10.25;;
52104;SDS011;38103;42.776;23.112;2024-02-26T06:30:02;18.63;;;11.75;;
52104;SDS011;38103;42.776;23.112;2024-02-26T06:32:28;21.35;;;11.27;;
52104;SDS011;38103;42.776;23.112;2024-02-26T06:34:54;19.38;;;11.07;;
52104;SDS011;38103;42.776;23.112;2024-02-26T06:37:20;22.98;;;10.77;;
52104;SDS011;38103;42.776;23.112;2024-02-26T06:39:45;19.45;;;11.88;;
52104;SDS011;38103;42.776;23.112;2024-02-26T06:42:11;18.25;;;11.10;;
52104;SDS011;38103;42.776;23.112;2024-02-26T06:44:36;18.00;;;10.65;;
52104;SDS011;38103;42.776;23.112;2024-02-26T06:47:02;19.65;;;10.07;;
52104;SDS011;38103;42.776;23.112;2024-02-26T06:49:27;24.63;;;13.63;;
52104;SDS011;38103;42.776;23.112;2024-02-26T06:51:54;22.83;;;12.27;;
52104;SDS011;38103;42.776;23.112;2024-02-26T06:54:19;21.88;;;12.40;;
52104;SDS011;38103;42.776;23.112;2024-02-26T06:56:45;22.25;;;11.50;;
52104;SDS011;38103;42.776;23.112;2024-02-26T06:59:11;22.42;;;11.98;;
52104;SDS011;38103;42.776;23.112;2024-02-26T07:01:36;280.77;;;89.45;;
52104;SDS011;38103;42.776;23.112;2024-02-26T07:04:01;39.95;;;19.88;;
52104;SDS011;38103;42.776;23.112;2024-02-26T07:06:27;24.75;;;13.98;;
52104;SDS011;38103;42.776;23.112;2024-02-26T07:08:53;24.92;;;13.40;;
52104;SDS011;38103;42.776;23.112;2024-02-26T07:11:18;47.05;;;22.13;;
52104;SDS011;38103;42.776;23.112;2024-02-26T07:13:45;27.48;;;15.20;;
52104;SDS011;38103;42.776;23.112;2024-02-26T07:16:11;31.33;;;17.63;;
52104;SDS011;38103;42.776;23.112;2024-02-26T07:18:36;27.75;;;14.68;;
52104;SDS011;38103;42.776;23.112;2024-02-26T07:21:02;28.00;;;14.00;;
52104;SDS011;38103;42.776;23.112;2024-02-26T07:23:28;25.42;;;14.15;;
52104;SDS011;38103;42.776;23.112;2024-02-26T07:25:54;26.40;;;14.27;;
52104;SDS011;38103;42.776;23.112;2024-02-26T07:28:19;27.02;;;16.02;;
52104;SDS011;38103;42.776;23.112;2024-02-26T07:30:44;23.77;;;13.75;;
52104;SDS011;38103;42.776;23.112;2024-02-26T07:33:10;25.00;;;13.98;;
52104;SDS011;38103;42.776;23.112;2024-02-26T07:35:35;26.15;;;14.57;;
52104;SDS011;38103;42.776;23.112;2024-02-26T07:38:01;21.25;;;13.18;;
52104;SDS011;38103;42.776;23.112;2024-02-26T07:40:27;21.67;;;12.65;;
52104;SDS011;38103;42.776;23.112;2024-02-26T07:42:52;20.33;;;13.07;;
52104;SDS011;38103;42.776;23.112;2024-02-26T07:45:17;24.27;;;13.88;;
52104;SDS011;38103;42.776;23.112;2024-02-26T07:47:46;27.30;;;14.18;;
52104;SDS011;38103;42.776;23.112;2024-02-26T07:50:12;25.50;;;15.48;;
52104;SDS011;38103;42.776;23.112;2024-02-26T07:52:37;26.83;;;14.65;;
52104;SDS011;38103;42.776;23.112;2024-02-26T07:55:03;27.00;;;14.88;;
52104;SDS011;38103;42.776;23.112;2024-02-26T07:57:28;21.33;;;13.48;;
52104;SDS011;38103;42.776;23.112;2024-02-26T07:59:54;26.13;;;13.10;;
52104;SDS011;38103;42.776;23.112;2024-02-26T08:02:20;31.30;;;13.93;;
52104;SDS011;38103;42.776;23.112;2024-02-26T08:04:47;22.88;;;12.80;;
52104;SDS011;38103;42.776;23.112;2024-02-26T08:07:12;30.15;;;14.75;;
52104;SDS011;38103;42.776;23.112;2024-02-26T08:09:37;28.33;;;13.88;;
52104;SDS011;38103;42.776;23.112;2024-02-26T08:12:03;26.20;;;14.18;;
52104;SDS011;38103;42.776;23.112;2024-02-26T08:14:28;23.05;;;13.20;;
52104;SDS011;38103;42.776;23.112;2024-02-26T08:16:54;23.48;;;13.32;;
52104;SDS011;38103;42.776;23.112;2024-02-26T08:19:19;21.88;;;11.68;;
52104;SDS011;38103;42.776;23.112;2024-02-26T08:21:44;22.38;;;13.07;;
52104;SDS011;38103;42.776;23.112;2024-02-26T08:24:10;22.77;;;10.30;;
52104;SDS011;38103;42.776;23.112;2024-02-26T08:26:35;16.48;;;10.70;;
52104;SDS011;38103;42.776;23.112;2024-02-26T08:29:01;19.27;;;9.75;;
52104;SDS011;38103;42.776;23.112;2024-02-26T08:31:26;18.88;;;10.77;;
52104;SDS011;38103;42.776;23.112;2024-02-26T08:33:52;14.35;;;9.40;;
52104;SDS011;38103;42.776;23.112;2024-02-26T08:36:18;15.93;;;10.13;;
52104;SDS011;38103;42.776;23.112;2024-02-26T08:38:43;19.52;;;9.52;;
52104;SDS011;38103;42.776;23.112;2024-02-26T08:41:08;16.30;;;8.10;;
52104;SDS011;38103;42.776;23.112;2024-02-26T08:43:34;14.60;;;8.95;;
52104;SDS011;38103;42.776;23.112;2024-02-26T08:45:59;14.20;;;8.13;;
52104;SDS011;38103;42.776;23.112;2024-02-26T08:48:25;12.05;;;9.02;;
52104;SDS011;38103;42.776;23.112;2024-02-26T08:50:50;11.63;;;8.13;;
52104;SDS011;38103;42.776;23.112;2024-02-26T08:53:16;19.75;;;8.38;;
52104;SDS011;38103;42.776;23.112;2024-02-26T08:55:41;13.23;;;8.75;;
52104;SDS011;38103;42.776;23.112;2024-02-26T08:58:07;10.65;;;7.40;;
52104;SDS011;38103;42.776;23.112;2024-02-26T09:00:32;15.98;;;8.68;;
52104;SDS011;38103;42.776;23.112;2024-02-26T09:02:57;18.42;;;9.57;;
52104;SDS011;38103;42.776;23.112;2024-02-26T09:05:23;10.18;;;7.78;;
52104;SDS011;38103;42.776;23.112;2024-02-26T09:07:48;15.32;;;8.20;;
52104;SDS011;38103;42.776;23.112;2024-02-26T09:10:13;15.93;;;9.38;;
52104;SDS011;38103;42.776;23.112;2024-02-26T09:12:39;12.88;;;8.30;;
52104;SDS011;38103;42.776;23.112;2024-02-26T09:15:05;17.27;;;10.00;;
52104;SDS011;38103;42.776;23.112;2024-02-26T09:17:32;15.52;;;9.63;;
52104;SDS011;38103;42.776;23.112;2024-02-26T09:19:57;16.20;;;10.43;;
52104;SDS011;38103;42.776;23.112;2024-02-26T09:22:22;15.85;;;10.93;;
52104;SDS011;38103;42.776;23.112;2024-02-26T09:24:48;15.00;;;10.00;;
52104;SDS011;38103;42.776;23.112;2024-02-26T09:27:15;17.02;;;9.48;;
52104;SDS011;38103;42.776;23.112;2024-02-26T09:29:40;15.80;;;10.32;;
52104;SDS011;38103;42.776;23.112;2024-02-26T09:32:06;19.13;;;10.85;;
52104;SDS011;38103;42.776;23.112;2024-02-26T09:34:31;23.67;;;11.07;;
52104;SDS011;38103;42.776;23.112;2024-02-26T09:36:57;18.85;;;10.23;;
52104;SDS011;38103;42.776;23.112;2024-02-26T09:39:22;14.00;;;9.48;;
52104;SDS011;38103;42.776;23.112;2024-02-26T09:41:48;20.33;;;11.00;;
52104;SDS011;38103;42.776;23.112;2024-02-26T09:44:21;17.10;;;10.63;;
52104;SDS011;38103;42.776;23.112;2024-02-26T09:46:49;14.73;;;10.05;;
52104;SDS011;38103;42.776;23.112;2024-02-26T09:49:18;17.23;;;10.45;;
52104;SDS011;38103;42.776;23.112;2024-02-26T09:51:45;17.98;;;10.73;;
52104;SDS011;38103;42.776;23.112;2024-02-26T09:54:14;16.83;;;11.10;;
52104;SDS011;38103;42.776;23.112;2024-02-26T09:59:06;18.67;;;9.70;;
52104;SDS011;38103;42.776;23.112;2024-02-26T10:01:38;19.60;;;9.90;;
52104;SDS011;38103;42.776;23.112;2024-02-26T10:04:06;21.60;;;11.13;;
52104;SDS011;38103;42.776;23.112;2024-02-26T10:06:34;17.58;;;11.18;;
52104;SDS011;38103;42.776;23.112;2024-02-26T10:09:01;16.27;;;11.70;;
52104;SDS011;38103;42.776;23.112;2024-02-26T10:11:31;16.05;;;10.60;;
52104;SDS011;38103;42.776;23.112;2024-02-26T10:13:57;21.75;;;10.43;;
52104;SDS011;38103;42.776;23.112;2024-02-26T10:16:22;16.20;;;11.00;;
52104;SDS011;38103;42.776;23.112;2024-02-26T10:18:49;19.70;;;11.45;;
52104;SDS011;38103;42.776;23.112;2024-02-26T10:23:42;21.42;;;11.38;;
52104;SDS011;38103;42.776;23.112;2024-02-26T10:26:09;22.02;;;10.98;;
52104;SDS011;38103;42.776;23.112;2024-02-26T10:28:36;21.15;;;11.23;;
52104;SDS011;38103;42.776;23.112;2024-02-26T10:31:02;16.13;;;10.63;;
52104;SDS011;38103;42.776;23.112;2024-02-26T10:33:27;17.05;;;11.25;;
52104;SDS011;38103;42.776;23.112;2024-02-26T10:35:53;17.55;;;10.63;;
52104;SDS011;38103;42.776;23.112;2024-02-26T10:38:19;14.85;;;10.68;;
52104;SDS011;38103;42.776;23.112;2024-02-26T10:43:11;15.82;;;10.90;;
52104;SDS011;38103;42.776;23.112;2024-02-26T10:45:38;17.27;;;11.68;;
52104;SDS011;38103;42.776;23.112;2024-02-26T10:48:09;16.45;;;10.77;;
52104;SDS011;38103;42.776;23.112;2024-02-26T10:50:36;20.95;;;10.23;;
52104;SDS011;38103;42.776;23.112;2024-02-26T10:53:01;15.50;;;10.95;;
52104;SDS011;38103;42.776;23.112;2024-02-26T10:55:28;14.70;;;8.80;;
52104;SDS011;38103;42.776;23.112;2024-02-26T10:57:56;14.38;;;7.75;;
52104;SDS011;38103;42.776;23.112;2024-02-26T11:00:22;12.57;;;7.63;;
52104;SDS011;38103;42.776;23.112;2024-02-26T11:02:47;15.07;;;8.68;;
52104;SDS011;38103;42.776;23.112;2024-02-26T11:05:13;13.13;;;8.02;;
52104;SDS011;38103;42.776;23.112;2024-02-26T11:07:39;9.25;;;7.03;;
52104;SDS011;38103;42.776;23.112;2024-02-26T11:10:06;10.18;;;4.93;;
52104;SDS011;38103;42.776;23.112;2024-02-26T11:12:33;6.13;;;5.30;;
52104;SDS011;38103;42.776;23.112;2024-02-26T11:15:03;8.15;;;4.53;;
52104;SDS011;38103;42.776;23.112;2024-02-26T11:17:29;4.43;;;3.95;;
52104;SDS011;38103;42.776;23.112;2024-02-26T11:19:58;5.80;;;4.53;;
52104;SDS011;38103;42.776;23.112;2024-02-26T11:22:25;5.65;;;4.82;;
52104;SDS011;38103;42.776;23.112;2024-02-26T11:24:54;7.32;;;4.18;;
52104;SDS011;38103;42.776;23.112;2024-02-26T11:27:23;8.13;;;3.95;;
52104;SDS011;38103;42.776;23.112;2024-02-26T11:29:51;5.38;;;4.07;;
52104;SDS011;38103;42.776;23.112;2024-02-26T11:32:19;7.45;;;4.45;;
52104;SDS011;38103;42.776;23.112;2024-02-26T11:34:45;6.68;;;4.15;;
52104;SDS011;38103;42.776;23.112;2024-02-26T11:37:14;4.93;;;4.40;;
52104;SDS011;38103;42.776;23.112;2024-02-26T11:39:41;6.10;;;3.90;;
52104;SDS011;38103;42.776;23.112;2024-02-26T11:42:07;6.40;;;4.13;;
52104;SDS011;38103;42.776;23.112;2024-02-26T11:44:33;6.22;;;3.97;;
52104;SDS011;38103;42.776;23.112;2024-02-26T11:47:09;7.18;;;4.15;;
52104;SDS011;38103;42.776;23.112;2024-02-26T11:49:38;4.97;;;3.70;;
52104;SDS011;38103;42.776;23.112;2024-02-26T11:52:05;4.55;;;3.67;;
52104;SDS011;38103;42.776;23.112;2024-02-26T11:54:51;8.50;;;3.65;;
52104;SDS011;38103;42.776;23.112;2024-02-26T12:00:12;6.30;;;4.00;;
52104;SDS011;38103;42.776;23.112;2024-02-26T12:02:50;4.80;;;3.55;;
52104;SDS011;38103;42.776;23.112;2024-02-26T12:05:23;4.43;;;3.53;;
52104;SDS011;38103;42.776;23.112;2024-02-26T12:07:51;6.40;;;4.30;;
52104;SDS011;38103;42.776;23.112;2024-02-26T12:12:54;6.90;;;4.25;;
52104;SDS011;38103;42.776;23.112;2024-02-26T12:15:23;6.63;;;3.13;;
52104;SDS011;38103;42.776;23.112;2024-02-26T12:17:49;4.07;;;3.65;;
52104;SDS011;38103;42.776;23.112;2024-02-26T12:20:16;5.82;;;4.15;;
52104;SDS011;38103;42.776;23.112;2024-02-26T12:25:10;4.82;;;3.63;;
52104;SDS011;38103;42.776;23.112;2024-02-26T12:27:35;5.57;;;3.67;;
52104;SDS011;38103;42.776;23.112;2024-02-26T12:30:01;4.88;;;3.80;;
52104;SDS011;38103;42.776;23.112;2024-02-26T12:32:31;7.53;;;4.22;;
52104;SDS011;38103;42.776;23.112;2024-02-26T12:34:57;7.35;;;4.18;;
52104;SDS011;38103;42.776;23.112;2024-02-26T12:37:22;3.38;;;3.08;;
52104;SDS011;38103;42.776;23.112;2024-02-26T12:39:47;8.50;;;4.05;;
52104;SDS011;38103;42.776;23.112;2024-02-26T12:42:13;5.10;;;3.85;;
52104;SDS011;38103;42.776;23.112;2024-02-26T12:47:04;9.30;;;4.13;;
52104;SDS011;38103;42.776;23.112;2024-02-26T12:49:30;4.50;;;3.40;;
52104;SDS011;38103;42.776;23.112;2024-02-26T12:51:56;4.53;;;3.78;;
52104;SDS011;38103;42.776;23.112;2024-02-26T12:54:35;4.75;;;3.17;;
52104;SDS011;38103;42.776;23.112;2024-02-26T12:57:04;3.38;;;3.08;;
52104;SDS011;38103;42.776;23.112;2024-02-26T12:59:31;5.32;;;3.45;;
52104;SDS011;38103;42.776;23.112;2024-02-26T13:01:59;6.60;;;2.85;;
52104;SDS011;38103;42.776;23.112;2024-02-26T13:04:26;4.72;;;2.72;;
52104;SDS011;38103;42.776;23.112;2024-02-26T13:06:53;5.43;;;3.33;;
52104;SDS011;38103;42.776;23.112;2024-02-26T13:09:18;3.97;;;3.28;;
52104;SDS011;38103;42.776;23.112;2024-02-26T13:11:44;4.75;;;3.30;;
52104;SDS011;38103;42.776;23.112;2024-02-26T13:14:19;3.78;;;3.17;;
52104;SDS011;38103;42.776;23.112;2024-02-26T13:16:54;3.85;;;3.05;;
52104;SDS011;38103;42.776;23.112;2024-02-26T13:19:20;3.72;;;3.38;;
52104;SDS011;38103;42.776;23.112;2024-02-26T13:21:45;7.05;;;2.95;;
52104;SDS011;38103;42.776;23.112;2024-02-26T13:24:12;4.65;;;3.00;;
52104;SDS011;38103;42.776;23.112;2024-02-26T13:26:38;8.00;;;3.45;;
52104;SDS011;38103;42.776;23.112;2024-02-26T13:29:04;4.65;;;3.13;;
52104;SDS011;38103;42.776;23.112;2024-02-26T13:31:30;3.10;;;2.83;;
52104;SDS011;38103;42.776;23.112;2024-02-26T13:33:55;4.55;;;3.40;;
52104;SDS011;38103;42.776;23.112;2024-02-26T13:36:21;5.47;;;3.35;;
52104;SDS011;38103;42.776;23.112;2024-02-26T13:38:53;4.97;;;3.10;;
52104;SDS011;38103;42.776;23.112;2024-02-26T13:41:20;4.18;;;3.50;;
52104;SDS011;38103;42.776;23.112;2024-02-26T13:46:11;7.82;;;3.28;;
52104;SDS011;38103;42.776;23.112;2024-02-26T13:48:39;4.18;;;3.40;;
52104;SDS011;38103;42.776;23.112;2024-02-26T13:51:04;5.68;;;3.13;;
52104;SDS011;38103;42.776;23.112;2024-02-26T13:53:30;5.07;;;3.13;;
52104;SDS011;38103;42.776;23.112;2024-02-26T13:55:55;5.18;;;4.03;;
52104;SDS011;38103;42.776;23.112;2024-02-26T13:58:22;6.13;;;3.60;;
52104;SDS011;38103;42.776;23.112;2024-02-26T14:00:48;5.05;;;3.30;;
52104;SDS011;38103;42.776;23.112;2024-02-26T14:03:14;5.30;;;3.80;;
52104;SDS011;38103;42.776;23.112;2024-02-26T14:05:39;3.53;;;3.20;;
52104;SDS011;38103;42.776;23.112;2024-02-26T14:08:06;4.80;;;4.13;;
52104;SDS011;38103;42.776;23.112;2024-02-26T14:10:31;5.00;;;4.60;;
52104;SDS011;38103;42.776;23.112;2024-02-26T14:12:57;7.13;;;3.50;;
52104;SDS011;38103;42.776;23.112;2024-02-26T14:15:24;4.78;;;3.42;;
52104;SDS011;38103;42.776;23.112;2024-02-26T14:17:50;4.82;;;3.28;;
52104;SDS011;38103;42.776;23.112;2024-02-26T14:20:20;5.43;;;3.53;;
52104;SDS011;38103;42.776;23.112;2024-02-26T14:22:45;3.65;;;3.22;;
52104;SDS011;38103;42.776;23.112;2024-02-26T14:25:11;10.80;;;3.22;;
52104;SDS011;38103;42.776;23.112;2024-02-26T14:27:36;4.88;;;2.75;;
52104;SDS011;38103;42.776;23.112;2024-02-26T14:30:02;4.13;;;3.28;;
52104;SDS011;38103;42.776;23.112;2024-02-26T14:32:28;3.58;;;2.97;;